RON825 YBCS-YBSU
Flight info
| Callsign | RON825 |
|---|---|
| Flight time | 1h 40m |
| Altitude | 41000 |
| Route | M076F410 DCT CS Y177 RUROX W727 SUSGI W534 SU DCT |
| Aircraft | B737/M-SDFGHIRWYZ/LB1 |
Departure
| Time | 2026-04-27 10:51 |
|---|---|
| Airport | Cairns International Airport (YBCS) |
Arrival
| Time | 2026-04-27 12:31 |
|---|---|
| Airport | Sunshine Coast Airport (YBSU) |
| Time | Latitude | Longitude | Altitude | Speed | Heading |
|---|---|---|---|---|---|
| 2026-04-27 10:18 | -16.87587 | 145.75205 | 17 ft | 0 kts | 67° |
| 2026-04-27 10:38 | -16.87588 | 145.75203 | 15 ft | 2 kts | 67° |
| 2026-04-27 10:38 | -16.87598 | 145.75179 | 15 ft | 4 kts | 65° |
| 2026-04-27 10:39 | -16.87606 | 145.75153 | 15 ft | 4 kts | 95° |
| 2026-04-27 10:39 | -16.87602 | 145.75131 | 15 ft | 4 kts | 122° |
| 2026-04-27 10:39 | -16.87584 | 145.75112 | 17 ft | 3 kts | 154° |
| 2026-04-27 10:39 | -16.87580 | 145.75110 | 17 ft | 0 kts | 156° |
| 2026-04-27 10:42 | -16.87580 | 145.75111 | 17 ft | 0 kts | 156° |
| 2026-04-27 10:43 | -16.87600 | 145.75118 | 15 ft | 6 kts | 168° |
| 2026-04-27 10:43 | -16.87649 | 145.75094 | 15 ft | 11 kts | 238° |
| 2026-04-27 10:43 | -16.87647 | 145.75039 | 17 ft | 13 kts | 307° |
| 2026-04-27 10:43 | -16.87528 | 145.74981 | 16 ft | 14 kts | 338° |
| 2026-04-27 10:44 | -16.87436 | 145.74940 | 11 ft | 15 kts | 336° |
| 2026-04-27 10:44 | -16.87370 | 145.74910 | 11 ft | 17 kts | 336° |
| 2026-04-27 10:44 | -16.87259 | 145.74860 | 10 ft | 18 kts | 336° |
| 2026-04-27 10:44 | -16.87165 | 145.74817 | 10 ft | 14 kts | 336° |
| 2026-04-27 10:45 | -16.87093 | 145.74784 | 12 ft | 10 kts | 336° |
| 2026-04-27 10:45 | -16.87070 | 145.74770 | 12 ft | 0 kts | 322° |
| 2026-04-27 10:47 | -16.87067 | 145.74768 | 12 ft | 1 kts | 322° |
| 2026-04-27 10:47 | -16.87050 | 145.74748 | 11 ft | 7 kts | 300° |
| 2026-04-27 10:47 | -16.87049 | 145.74703 | 13 ft | 3 kts | 243° |
| 2026-04-27 10:47 | -16.87053 | 145.74694 | 11 ft | 0 kts | 244° |
| 2026-04-27 10:49 | -16.87054 | 145.74692 | 11 ft | 1 kts | 244° |
| 2026-04-27 10:49 | -16.87065 | 145.74667 | 12 ft | 7 kts | 245° |
| 2026-04-27 10:49 | -16.87094 | 145.74604 | 13 ft | 12 kts | 242° |
| 2026-04-27 10:50 | -16.87123 | 145.74599 | 11 ft | 0 kts | 155° |
| 2026-04-27 10:50 | -16.87233 | 145.74649 | 13 ft | 52 kts | 156° |
| 2026-04-27 10:51 | -16.87805 | 145.74908 | 17 ft | 124 kts | 156° |
| 2026-04-27 10:51 | -16.88700 | 145.75323 | 396 ft | 146 kts | 156° |
| 2026-04-27 10:51 | -16.89511 | 145.75927 | 1225 ft | 147 kts | 128° |
| 2026-04-27 10:51 | -16.89785 | 145.77024 | 1915 ft | 173 kts | 89° |
| 2026-04-27 10:52 | -16.89348 | 145.78290 | 2610 ft | 201 kts | 56° |
| 2026-04-27 10:52 | -16.88328 | 145.79316 | 3640 ft | 206 kts | 49° |
| 2026-04-27 10:52 | -16.87225 | 145.80312 | 4590 ft | 212 kts | 45° |
| 2026-04-27 10:52 | -16.86060 | 145.81249 | 5499 ft | 213 kts | 44° |
| 2026-04-27 10:53 | -16.84932 | 145.82256 | 6232 ft | 210 kts | 62° |
| 2026-04-27 10:53 | -16.84145 | 145.85225 | 7548 ft | 241 kts | 86° |
| 2026-04-27 10:53 | -16.84069 | 145.87070 | 8114 ft | 261 kts | 96° |
| 2026-04-27 10:54 | -16.84239 | 145.89009 | 8966 ft | 273 kts | 101° |
| 2026-04-27 10:54 | -16.84564 | 145.90995 | 9909 ft | 282 kts | 102° |
| 2026-04-27 10:54 | -16.85055 | 145.93003 | 10640 ft | 295 kts | 117° |
| 2026-04-27 10:54 | -16.86428 | 145.94688 | 11013 ft | 318 kts | 148° |
| 2026-04-27 10:55 | -16.88397 | 145.95830 | 11714 ft | 330 kts | 153° |
| 2026-04-27 10:55 | -16.90428 | 145.96981 | 12618 ft | 336 kts | 154° |
| 2026-04-27 10:55 | -16.92500 | 145.98157 | 13541 ft | 341 kts | 155° |
| 2026-04-27 10:55 | -16.94608 | 145.99353 | 14365 ft | 348 kts | 155° |
| 2026-04-27 10:56 | -16.96749 | 146.00567 | 15219 ft | 353 kts | 155° |
| 2026-04-27 10:56 | -16.98919 | 146.01799 | 16094 ft | 357 kts | 155° |
| 2026-04-27 10:56 | -17.01114 | 146.03046 | 16953 ft | 362 kts | 155° |
| 2026-04-27 10:56 | -17.03345 | 146.04313 | 17792 ft | 367 kts | 154° |
| 2026-04-27 10:57 | -17.05609 | 146.05600 | 18566 ft | 374 kts | 154° |
| 2026-04-27 10:57 | -17.07907 | 146.06906 | 19286 ft | 378 kts | 155° |
| 2026-04-27 10:57 | -17.10231 | 146.08228 | 20063 ft | 382 kts | 154° |
| 2026-04-27 10:57 | -17.12577 | 146.09563 | 20831 ft | 386 kts | 154° |
| 2026-04-27 10:58 | -17.14946 | 146.10911 | 21584 ft | 390 kts | 154° |
| 2026-04-27 10:58 | -17.17348 | 146.12279 | 22295 ft | 396 kts | 154° |
| 2026-04-27 10:58 | -17.19783 | 146.13665 | 23009 ft | 401 kts | 154° |
| 2026-04-27 10:58 | -17.22249 | 146.15070 | 23702 ft | 405 kts | 154° |
| 2026-04-27 10:59 | -17.24738 | 146.16489 | 24308 ft | 410 kts | 154° |
| 2026-04-27 10:59 | -17.27219 | 146.17903 | 24921 ft | 413 kts | 154° |
| 2026-04-27 10:59 | -17.29754 | 146.19348 | 25563 ft | 416 kts | 154° |
| 2026-04-27 11:00 | -17.34919 | 146.22295 | 26784 ft | 424 kts | 154° |
| 2026-04-27 11:00 | -17.37521 | 146.23779 | 27366 ft | 428 kts | 154° |
| 2026-04-27 11:00 | -17.40147 | 146.25278 | 27945 ft | 432 kts | 154° |
| 2026-04-27 11:00 | -17.42797 | 146.26791 | 28512 ft | 435 kts | 154° |
| 2026-04-27 11:01 | -17.45468 | 146.28317 | 29073 ft | 439 kts | 154° |
| 2026-04-27 11:01 | -17.48159 | 146.29855 | 29619 ft | 443 kts | 154° |
| 2026-04-27 11:01 | -17.50877 | 146.31408 | 30152 ft | 447 kts | 154° |
| 2026-04-27 11:01 | -17.53615 | 146.32974 | 30581 ft | 451 kts | 154° |
| 2026-04-27 11:02 | -17.56383 | 146.34556 | 30966 ft | 456 kts | 154° |
| 2026-04-27 11:02 | -17.59170 | 146.36150 | 31367 ft | 459 kts | 155° |
| 2026-04-27 11:02 | -17.61991 | 146.37765 | 31751 ft | 463 kts | 155° |
| 2026-04-27 11:02 | -17.64795 | 146.39370 | 32095 ft | 467 kts | 155° |
| 2026-04-27 11:03 | -17.67659 | 146.41011 | 32445 ft | 471 kts | 155° |
| 2026-04-27 11:03 | -17.70550 | 146.42667 | 32779 ft | 475 kts | 155° |
| 2026-04-27 11:03 | -17.73463 | 146.44337 | 33105 ft | 479 kts | 155° |
| 2026-04-27 11:03 | -17.76396 | 146.46018 | 33418 ft | 482 kts | 155° |
| 2026-04-27 11:04 | -17.79351 | 146.47709 | 33733 ft | 485 kts | 155° |
| 2026-04-27 11:04 | -17.82321 | 146.49408 | 34068 ft | 487 kts | 155° |
| 2026-04-27 11:04 | -17.85292 | 146.51118 | 34424 ft | 487 kts | 155° |
| 2026-04-27 11:04 | -17.88265 | 146.52830 | 34764 ft | 488 kts | 155° |
| 2026-04-27 11:05 | -17.91237 | 146.54542 | 35187 ft | 486 kts | 155° |
| 2026-04-27 11:05 | -17.94199 | 146.56246 | 35521 ft | 486 kts | 155° |
| 2026-04-27 11:05 | -17.97176 | 146.57958 | 35745 ft | 490 kts | 156° |
| 2026-04-27 11:05 | -18.00176 | 146.59683 | 35972 ft | 492 kts | 156° |
| 2026-04-27 11:06 | -18.03180 | 146.61410 | 36283 ft | 493 kts | 156° |
| 2026-04-27 11:06 | -18.06190 | 146.63144 | 36581 ft | 493 kts | 156° |
| 2026-04-27 11:06 | -18.09201 | 146.64878 | 36836 ft | 495 kts | 156° |
| 2026-04-27 11:06 | -18.12230 | 146.66622 | 37089 ft | 497 kts | 156° |
| 2026-04-27 11:07 | -18.15265 | 146.68372 | 37369 ft | 498 kts | 156° |
| 2026-04-27 11:07 | -18.18303 | 146.70124 | 37639 ft | 499 kts | 157° |
| 2026-04-27 11:07 | -18.21349 | 146.71881 | 37889 ft | 500 kts | 157° |
| 2026-04-27 11:07 | -18.24402 | 146.73643 | 38147 ft | 501 kts | 157° |
| 2026-04-27 11:08 | -18.27463 | 146.75411 | 38413 ft | 502 kts | 157° |
| 2026-04-27 11:08 | -18.30526 | 146.77181 | 38663 ft | 503 kts | 158° |
| 2026-04-27 11:08 | -18.33602 | 146.78958 | 38886 ft | 504 kts | 158° |
| 2026-04-27 11:08 | -18.36669 | 146.80734 | 39172 ft | 503 kts | 157° |
| 2026-04-27 11:09 | -18.39718 | 146.82515 | 39493 ft | 500 kts | 157° |
| 2026-04-27 11:09 | -18.42751 | 146.84295 | 39787 ft | 499 kts | 157° |
| 2026-04-27 11:09 | -18.45792 | 146.86083 | 39935 ft | 501 kts | 157° |
| 2026-04-27 11:09 | -18.48840 | 146.87875 | 40079 ft | 503 kts | 157° |
| 2026-04-27 11:10 | -18.51896 | 146.89672 | 40350 ft | 502 kts | 157° |
| 2026-04-27 11:10 | -18.54909 | 146.91448 | 40956 ft | 492 kts | 157° |
| 2026-04-27 11:10 | -18.60898 | 146.94970 | 41038 ft | 500 kts | 157° |
| 2026-04-27 11:11 | -18.67021 | 146.98566 | 41043 ft | 506 kts | 156° |
| 2026-04-27 11:11 | -18.73177 | 147.02184 | 41041 ft | 507 kts | 157° |
| 2026-04-27 11:12 | -18.79348 | 147.05814 | 41039 ft | 507 kts | 156° |
| 2026-04-27 11:12 | -18.85511 | 147.09454 | 41054 ft | 507 kts | 156° |
| 2026-04-27 11:13 | -18.91607 | 147.13063 | 41034 ft | 496 kts | 156° |
| 2026-04-27 11:13 | -18.97599 | 147.16605 | 41030 ft | 492 kts | 156° |
| 2026-04-27 11:14 | -19.03565 | 147.20143 | 41035 ft | 491 kts | 156° |
| 2026-04-27 11:14 | -19.09490 | 147.23649 | 41037 ft | 491 kts | 156° |
| 2026-04-27 11:15 | -19.15465 | 147.27187 | 41043 ft | 492 kts | 156° |
| 2026-04-27 11:15 | -19.21445 | 147.30733 | 41049 ft | 492 kts | 155° |
| 2026-04-27 11:16 | -19.27405 | 147.34270 | 41039 ft | 491 kts | 155° |
| 2026-04-27 11:16 | -19.33356 | 147.37804 | 41039 ft | 489 kts | 155° |
| 2026-04-27 11:17 | -19.39295 | 147.41334 | 41039 ft | 489 kts | 155° |
| 2026-04-27 11:17 | -19.45225 | 147.44862 | 41058 ft | 489 kts | 155° |
| 2026-04-27 11:18 | -19.51165 | 147.48399 | 41077 ft | 489 kts | 155° |
| 2026-04-27 11:18 | -19.57061 | 147.51913 | 41052 ft | 488 kts | 155° |
| 2026-04-27 11:19 | -19.62978 | 147.55444 | 41043 ft | 487 kts | 155° |
| 2026-04-27 11:19 | -19.68882 | 147.58968 | 41046 ft | 487 kts | 155° |
| 2026-04-27 11:20 | -19.74782 | 147.62488 | 41054 ft | 486 kts | 155° |
| 2026-04-27 11:20 | -19.80677 | 147.66006 | 41053 ft | 486 kts | 155° |
| 2026-04-27 11:21 | -19.86577 | 147.69530 | 41069 ft | 486 kts | 154° |
| 2026-04-27 11:21 | -19.92468 | 147.73054 | 41061 ft | 486 kts | 154° |
| 2026-04-27 11:22 | -19.98367 | 147.76585 | 41060 ft | 486 kts | 154° |
| 2026-04-27 11:22 | -20.04220 | 147.80093 | 41060 ft | 486 kts | 154° |
| 2026-04-27 11:23 | -20.10112 | 147.83627 | 41065 ft | 486 kts | 154° |
| 2026-04-27 11:23 | -20.16005 | 147.87164 | 41078 ft | 486 kts | 154° |
| 2026-04-27 11:24 | -20.21901 | 147.90706 | 41072 ft | 486 kts | 154° |
| 2026-04-27 11:24 | -20.27793 | 147.94249 | 41069 ft | 487 kts | 154° |
| 2026-04-27 11:25 | -20.33689 | 147.97797 | 41071 ft | 487 kts | 154° |
| 2026-04-27 11:25 | -20.39589 | 148.01351 | 41075 ft | 487 kts | 154° |
| 2026-04-27 11:26 | -20.45493 | 148.04910 | 41075 ft | 487 kts | 154° |
| 2026-04-27 11:26 | -20.51395 | 148.08472 | 41083 ft | 487 kts | 154° |
| 2026-04-27 11:27 | -20.57294 | 148.12035 | 41086 ft | 487 kts | 154° |
| 2026-04-27 11:27 | -20.63197 | 148.15603 | 41084 ft | 487 kts | 154° |
| 2026-04-27 11:28 | -20.69095 | 148.19172 | 41083 ft | 487 kts | 154° |
| 2026-04-27 11:28 | -20.74994 | 148.22746 | 41091 ft | 487 kts | 154° |
| 2026-04-27 11:29 | -20.80855 | 148.26297 | 41112 ft | 488 kts | 155° |
| 2026-04-27 11:29 | -20.86764 | 148.29882 | 41100 ft | 488 kts | 155° |
| 2026-04-27 11:30 | -20.92676 | 148.33472 | 41087 ft | 488 kts | 155° |
| 2026-04-27 11:30 | -20.97583 | 148.36455 | 41096 ft | 488 kts | 155° |
| 2026-04-27 11:31 | -21.03483 | 148.40044 | 41094 ft | 488 kts | 154° |
| 2026-04-27 11:31 | -21.09380 | 148.43634 | 41095 ft | 487 kts | 155° |
| 2026-04-27 11:32 | -21.15271 | 148.47224 | 41113 ft | 487 kts | 155° |
| 2026-04-27 11:32 | -21.21163 | 148.50818 | 41112 ft | 487 kts | 155° |
| 2026-04-27 11:33 | -21.28017 | 148.55002 | 41112 ft | 488 kts | 155° |
| 2026-04-27 11:33 | -21.32955 | 148.58020 | 41105 ft | 488 kts | 155° |
| 2026-04-27 11:34 | -21.38859 | 148.61631 | 41107 ft | 488 kts | 155° |
| 2026-04-27 11:34 | -21.44758 | 148.65243 | 41115 ft | 488 kts | 155° |
| 2026-04-27 11:35 | -21.50624 | 148.68838 | 41119 ft | 489 kts | 155° |
| 2026-04-27 11:35 | -21.56526 | 148.72460 | 41107 ft | 489 kts | 155° |
| 2026-04-27 11:36 | -21.62424 | 148.76080 | 41116 ft | 488 kts | 155° |
| 2026-04-27 11:36 | -21.68326 | 148.79707 | 41116 ft | 489 kts | 155° |
| 2026-04-27 11:37 | -21.74235 | 148.83341 | 41117 ft | 489 kts | 155° |
| 2026-04-27 11:37 | -21.80153 | 148.86986 | 41121 ft | 490 kts | 155° |
| 2026-04-27 11:38 | -21.86071 | 148.90633 | 41109 ft | 490 kts | 155° |
| 2026-04-27 11:38 | -21.91978 | 148.94277 | 41114 ft | 489 kts | 155° |
| 2026-04-27 11:39 | -21.97886 | 148.97926 | 41114 ft | 489 kts | 155° |
| 2026-04-27 11:39 | -22.03792 | 149.01577 | 41112 ft | 489 kts | 155° |
| 2026-04-27 11:40 | -22.09692 | 149.05227 | 41141 ft | 489 kts | 156° |
| 2026-04-27 11:40 | -22.15602 | 149.08887 | 41121 ft | 490 kts | 155° |
| 2026-04-27 11:41 | -22.21512 | 149.12550 | 41121 ft | 490 kts | 155° |
| 2026-04-27 11:41 | -22.27431 | 149.16223 | 41118 ft | 491 kts | 155° |
| 2026-04-27 11:42 | -22.33354 | 149.19903 | 41110 ft | 491 kts | 155° |
| 2026-04-27 11:42 | -22.39236 | 149.23560 | 41120 ft | 491 kts | 155° |
| 2026-04-27 11:43 | -22.45165 | 149.27250 | 41125 ft | 492 kts | 155° |
| 2026-04-27 11:43 | -22.51084 | 149.30938 | 41124 ft | 491 kts | 156° |
| 2026-04-27 11:44 | -22.56998 | 149.34627 | 41126 ft | 490 kts | 156° |
| 2026-04-27 11:44 | -22.62901 | 149.38312 | 41111 ft | 489 kts | 156° |
| 2026-04-27 11:45 | -22.67843 | 149.41398 | 41124 ft | 489 kts | 156° |
| 2026-04-27 11:45 | -22.74684 | 149.45672 | 41162 ft | 488 kts | 156° |
| 2026-04-27 11:46 | -22.80572 | 149.49351 | 41140 ft | 488 kts | 156° |
| 2026-04-27 11:46 | -22.86453 | 149.53036 | 41122 ft | 488 kts | 156° |
| 2026-04-27 11:47 | -22.92332 | 149.56728 | 41135 ft | 488 kts | 156° |
| 2026-04-27 11:47 | -22.98205 | 149.60423 | 41135 ft | 488 kts | 156° |
| 2026-04-27 11:48 | -23.04091 | 149.64125 | 41125 ft | 489 kts | 156° |
| 2026-04-27 11:48 | -23.09983 | 149.67833 | 41138 ft | 490 kts | 156° |
| 2026-04-27 11:49 | -23.15880 | 149.71557 | 41136 ft | 490 kts | 156° |
| 2026-04-27 11:49 | -23.21767 | 149.75293 | 41133 ft | 490 kts | 156° |
| 2026-04-27 11:50 | -23.27662 | 149.79029 | 41135 ft | 490 kts | 156° |
| 2026-04-27 11:50 | -23.33558 | 149.82766 | 41129 ft | 490 kts | 156° |
| 2026-04-27 11:51 | -23.39449 | 149.86503 | 41162 ft | 490 kts | 156° |
| 2026-04-27 11:52 | -23.48288 | 149.92117 | 41153 ft | 490 kts | 155° |
| 2026-04-27 11:52 | -23.54175 | 149.95862 | 41147 ft | 490 kts | 156° |
| 2026-04-27 11:53 | -23.60069 | 149.99615 | 41131 ft | 490 kts | 156° |
| 2026-04-27 11:53 | -23.65965 | 150.03362 | 41140 ft | 490 kts | 156° |
| 2026-04-27 11:54 | -23.71854 | 150.07115 | 41187 ft | 490 kts | 156° |
| 2026-04-27 11:54 | -23.77695 | 150.10850 | 41152 ft | 490 kts | 155° |
| 2026-04-27 11:55 | -23.83562 | 150.14616 | 41148 ft | 489 kts | 155° |
| 2026-04-27 11:55 | -23.89429 | 150.18375 | 41148 ft | 489 kts | 155° |
| 2026-04-27 11:56 | -23.95302 | 150.22137 | 41152 ft | 489 kts | 155° |
| 2026-04-27 11:56 | -24.01177 | 150.25904 | 41151 ft | 490 kts | 155° |
| 2026-04-27 11:57 | -24.07058 | 150.29680 | 41157 ft | 491 kts | 155° |
| 2026-04-27 11:57 | -24.12946 | 150.33466 | 41158 ft | 491 kts | 155° |
| 2026-04-27 11:58 | -24.18840 | 150.37261 | 41155 ft | 491 kts | 155° |
| 2026-04-27 11:58 | -24.24724 | 150.41053 | 41163 ft | 491 kts | 155° |
| 2026-04-27 11:59 | -24.30611 | 150.44851 | 41164 ft | 491 kts | 155° |
| 2026-04-27 11:59 | -24.36462 | 150.48628 | 41201 ft | 491 kts | 154° |
| 2026-04-27 12:00 | -24.42340 | 150.52429 | 41176 ft | 490 kts | 154° |
| 2026-04-27 12:00 | -24.48196 | 150.56227 | 41173 ft | 489 kts | 153° |
| 2026-04-27 12:01 | -24.53566 | 150.60882 | 41189 ft | 494 kts | 142° |
| 2026-04-27 12:01 | -24.58631 | 150.66003 | 41188 ft | 495 kts | 141° |
| 2026-04-27 12:02 | -24.63692 | 150.71131 | 41183 ft | 495 kts | 142° |
| 2026-04-27 12:02 | -24.68778 | 150.76216 | 41191 ft | 494 kts | 142° |
| 2026-04-27 12:03 | -24.73883 | 150.81289 | 41195 ft | 495 kts | 142° |
| 2026-04-27 12:03 | -24.78996 | 150.86372 | 41195 ft | 496 kts | 142° |
| 2026-04-27 12:04 | -24.84118 | 150.91473 | 41196 ft | 497 kts | 142° |
| 2026-04-27 12:04 | -24.89245 | 150.96588 | 41200 ft | 498 kts | 142° |
| 2026-04-27 12:05 | -24.94379 | 151.01716 | 41200 ft | 499 kts | 142° |
| 2026-04-27 12:05 | -24.99518 | 151.06867 | 41194 ft | 500 kts | 141° |
| 2026-04-27 12:06 | -25.04664 | 151.12030 | 41218 ft | 500 kts | 141° |
| 2026-04-27 12:06 | -25.09806 | 151.17189 | 41206 ft | 499 kts | 141° |
| 2026-04-27 12:07 | -25.14907 | 151.22304 | 41190 ft | 498 kts | 141° |
| 2026-04-27 12:07 | -25.20036 | 151.27453 | 41197 ft | 497 kts | 141° |
| 2026-04-27 12:08 | -25.25153 | 151.32590 | 41198 ft | 497 kts | 141° |
| 2026-04-27 12:08 | -25.30269 | 151.37734 | 41193 ft | 498 kts | 141° |
| 2026-04-27 12:09 | -25.35387 | 151.42895 | 41205 ft | 498 kts | 141° |
| 2026-04-27 12:09 | -25.40507 | 151.48065 | 41205 ft | 499 kts | 141° |
| 2026-04-27 12:10 | -25.45623 | 151.53238 | 41201 ft | 498 kts | 141° |
| 2026-04-27 12:10 | -25.50732 | 151.58410 | 41196 ft | 497 kts | 141° |
| 2026-04-27 12:11 | -25.55835 | 151.63580 | 41195 ft | 497 kts | 141° |
| 2026-04-27 12:11 | -25.58400 | 151.66180 | 40781 ft | 504 kts | 140° |
| 2026-04-27 12:11 | -25.60869 | 151.68960 | 40142 ft | 508 kts | 133° |
| 2026-04-27 12:11 | -25.63114 | 151.71977 | 39472 ft | 507 kts | 131° |
| 2026-04-27 12:12 | -25.65287 | 151.75057 | 38713 ft | 508 kts | 130° |
| 2026-04-27 12:12 | -25.67441 | 151.78166 | 37851 ft | 508 kts | 130° |
| 2026-04-27 12:12 | -25.69589 | 151.81261 | 37067 ft | 504 kts | 130° |
| 2026-04-27 12:12 | -25.71730 | 151.84319 | 36343 ft | 499 kts | 130° |
| 2026-04-27 12:13 | -25.73868 | 151.87344 | 35471 ft | 498 kts | 130° |
| 2026-04-27 12:13 | -25.75979 | 151.90311 | 35090 ft | 477 kts | 131° |
| 2026-04-27 12:13 | -25.78001 | 151.93148 | 34478 ft | 464 kts | 131° |
| 2026-04-27 12:13 | -25.79987 | 151.95924 | 33297 ft | 458 kts | 130° |
| 2026-04-27 12:14 | -25.81972 | 151.98697 | 31851 ft | 458 kts | 130° |
| 2026-04-27 12:14 | -25.83947 | 152.01458 | 30497 ft | 456 kts | 129° |
| 2026-04-27 12:14 | -25.85910 | 152.04206 | 29037 ft | 455 kts | 129° |
| 2026-04-27 12:14 | -25.87878 | 152.06965 | 27860 ft | 457 kts | 129° |
| 2026-04-27 12:15 | -25.89846 | 152.09728 | 26891 ft | 455 kts | 129° |
| 2026-04-27 12:15 | -25.91782 | 152.12449 | 25976 ft | 454 kts | 129° |
| 2026-04-27 12:15 | -25.93769 | 152.15246 | 25038 ft | 457 kts | 129° |
| 2026-04-27 12:15 | -25.95718 | 152.17987 | 24108 ft | 458 kts | 129° |
| 2026-04-27 12:16 | -25.97712 | 152.20794 | 23028 ft | 455 kts | 129° |
| 2026-04-27 12:16 | -25.99660 | 152.23537 | 22027 ft | 448 kts | 128° |
| 2026-04-27 12:16 | -26.01575 | 152.26235 | 21086 ft | 441 kts | 128° |
| 2026-04-27 12:16 | -26.03432 | 152.28854 | 20174 ft | 434 kts | 128° |
| 2026-04-27 12:17 | -26.05272 | 152.31450 | 19488 ft | 416 kts | 128° |
| 2026-04-27 12:17 | -26.07059 | 152.33972 | 18451 ft | 415 kts | 127° |
| 2026-04-27 12:17 | -26.08844 | 152.36495 | 17361 ft | 412 kts | 127° |
| 2026-04-27 12:17 | -26.10603 | 152.38981 | 16418 ft | 406 kts | 127° |
| 2026-04-27 12:18 | -26.12332 | 152.41427 | 15515 ft | 399 kts | 127° |
| 2026-04-27 12:18 | -26.14005 | 152.43793 | 14635 ft | 379 kts | 127° |
| 2026-04-27 12:18 | -26.15595 | 152.46044 | 13783 ft | 361 kts | 127° |
| 2026-04-27 12:18 | -26.17116 | 152.48198 | 12921 ft | 347 kts | 127° |
| 2026-04-27 12:19 | -26.18611 | 152.50317 | 12118 ft | 352 kts | 127° |
| 2026-04-27 12:19 | -26.20140 | 152.52488 | 11302 ft | 360 kts | 127° |
| 2026-04-27 12:19 | -26.21684 | 152.54678 | 10720 ft | 352 kts | 127° |
| 2026-04-27 12:19 | -26.23160 | 152.56771 | 10415 ft | 335 kts | 127° |
| 2026-04-27 12:20 | -26.24550 | 152.58746 | 10236 ft | 311 kts | 127° |
| 2026-04-27 12:20 | -26.25408 | 152.59965 | 10134 ft | 296 kts | 127° |
| 2026-04-27 12:20 | -26.26645 | 152.61720 | 9991 ft | 281 kts | 127° |
| 2026-04-27 12:20 | -26.27844 | 152.63423 | 9546 ft | 278 kts | 127° |
| 2026-04-27 12:21 | -26.29040 | 152.65126 | 9103 ft | 274 kts | 125° |
| 2026-04-27 12:21 | -26.30115 | 152.66857 | 8660 ft | 269 kts | 123° |
| 2026-04-27 12:21 | -26.31131 | 152.68565 | 8240 ft | 267 kts | 123° |
| 2026-04-27 12:21 | -26.32153 | 152.70280 | 7814 ft | 264 kts | 123° |
| 2026-04-27 12:22 | -26.33169 | 152.71975 | 7385 ft | 262 kts | 123° |
| 2026-04-27 12:22 | -26.34179 | 152.73656 | 6970 ft | 260 kts | 123° |
| 2026-04-27 12:22 | -26.35179 | 152.75319 | 6564 ft | 256 kts | 123° |
| 2026-04-27 12:22 | -26.36149 | 152.76930 | 6127 ft | 244 kts | 123° |
| 2026-04-27 12:23 | -26.37082 | 152.78480 | 5718 ft | 239 kts | 123° |
| 2026-04-27 12:23 | -26.38005 | 152.80015 | 5351 ft | 237 kts | 123° |
| 2026-04-27 12:23 | -26.38922 | 152.81543 | 4943 ft | 237 kts | 123° |
| 2026-04-27 12:23 | -26.39838 | 152.83065 | 4538 ft | 236 kts | 124° |
| 2026-04-27 12:24 | -26.40729 | 152.84551 | 4404 ft | 227 kts | 124° |
| 2026-04-27 12:24 | -26.41588 | 152.85981 | 4294 ft | 217 kts | 124° |
| 2026-04-27 12:24 | -26.42412 | 152.87345 | 4190 ft | 208 kts | 124° |
| 2026-04-27 12:24 | -26.43192 | 152.88655 | 4077 ft | 198 kts | 121° |
| 2026-04-27 12:25 | -26.43657 | 152.90072 | 3929 ft | 195 kts | 107° |
| 2026-04-27 12:25 | -26.44000 | 152.91541 | 3785 ft | 197 kts | 108° |
| 2026-04-27 12:25 | -26.44351 | 152.93014 | 3611 ft | 195 kts | 108° |
| 2026-04-27 12:25 | -26.44688 | 152.94430 | 3448 ft | 181 kts | 108° |
| 2026-04-27 12:26 | -26.45020 | 152.95710 | 3251 ft | 163 kts | 118° |
| 2026-04-27 12:26 | -26.45730 | 152.96610 | 3100 ft | 149 kts | 139° |
| 2026-04-27 12:26 | -26.46528 | 152.97319 | 2887 ft | 142 kts | 141° |
| 2026-04-27 12:26 | -26.47271 | 152.97961 | 2702 ft | 130 kts | 140° |
| 2026-04-27 12:27 | -26.47971 | 152.98565 | 2528 ft | 124 kts | 141° |
| 2026-04-27 12:27 | -26.48642 | 152.99143 | 2410 ft | 121 kts | 142° |
| 2026-04-27 12:27 | -26.49306 | 152.99713 | 2248 ft | 119 kts | 140° |
| 2026-04-27 12:27 | -26.49953 | 153.00267 | 2090 ft | 114 kts | 142° |
| 2026-04-27 12:28 | -26.50552 | 153.00784 | 1967 ft | 105 kts | 142° |
| 2026-04-27 12:28 | -26.51147 | 153.01291 | 1883 ft | 116 kts | 142° |
| 2026-04-27 12:28 | -26.51836 | 153.01881 | 1631 ft | 127 kts | 141° |
| 2026-04-27 12:28 | -26.52507 | 153.02459 | 1451 ft | 122 kts | 145° |
| 2026-04-27 12:29 | -26.53180 | 153.03036 | 1290 ft | 121 kts | 145° |
| 2026-04-27 12:29 | -26.53837 | 153.03600 | 1137 ft | 121 kts | 149° |
| 2026-04-27 12:29 | -26.54517 | 153.04186 | 989 ft | 124 kts | 150° |
| 2026-04-27 12:29 | -26.55218 | 153.04790 | 845 ft | 126 kts | 147° |
| 2026-04-27 12:30 | -26.55873 | 153.05417 | 631 ft | 125 kts | 143° |
| 2026-04-27 12:30 | -26.56537 | 153.05999 | 407 ft | 120 kts | 150° |
| 2026-04-27 12:30 | -26.57221 | 153.06559 | 313 ft | 123 kts | 146° |
| 2026-04-27 12:30 | -26.57884 | 153.07124 | 198 ft | 115 kts | 147° |
| 2026-04-27 12:31 | -26.58500 | 153.07622 | 38 ft | 105 kts | 149° |
| 2026-04-27 12:31 | -26.58999 | 153.08046 | 23 ft | 65 kts | 142° |
| 2026-04-27 12:31 | -26.59268 | 153.08273 | 20 ft | 45 kts | 142° |
| 2026-04-27 12:31 | -26.59498 | 153.08469 | 21 ft | 38 kts | 143° |
| 2026-04-27 12:32 | -26.59696 | 153.08637 | 24 ft | 33 kts | 143° |
| 2026-04-27 12:32 | -26.59873 | 153.08784 | 23 ft | 31 kts | 142° |
| 2026-04-27 12:32 | -26.60039 | 153.08927 | 22 ft | 30 kts | 142° |
| 2026-04-27 12:32 | -26.60208 | 153.09072 | 21 ft | 30 kts | 143° |
| 2026-04-27 12:33 | -26.60298 | 153.09149 | 20 ft | 13 kts | 142° |
| 2026-04-27 12:33 | -26.60389 | 153.09172 | 20 ft | 15 kts | 193° |
| 2026-04-27 12:33 | -26.60489 | 153.09129 | 20 ft | 15 kts | 227° |
| 2026-04-27 12:33 | -26.60570 | 153.09060 | 22 ft | 15 kts | 194° |
| 2026-04-27 12:34 | -26.60661 | 153.09034 | 20 ft | 8 kts | 194° |
| 2026-04-27 12:34 | -26.60674 | 153.08990 | 20 ft | 7 kts | 292° |
| 2026-04-27 12:34 | -26.60661 | 153.08948 | 20 ft | 3 kts | 281° |
| 2026-04-27 12:34 | -26.60659 | 153.08934 | 20 ft | 2 kts | 282° |
| 2026-04-27 12:35 | -26.60657 | 153.08927 | 20 ft | 0 kts | 282° |